createdAt,value
2022-07-26T00:00:53.583Z,0.00
2022-07-26T00:01:53.815Z,0.00
2022-07-26T00:02:53.777Z,0.00
2022-07-26T00:03:53.875Z,0.00
2022-07-26T00:04:54.008Z,0.00
2022-07-26T00:05:54.149Z,0.00
2022-07-26T00:06:54.303Z,0.00
2022-07-26T00:07:54.433Z,0.00
2022-07-26T00:08:54.582Z,0.00
2022-07-26T00:09:54.728Z,0.00
2022-07-26T00:10:54.857Z,0.00
2022-07-26T00:11:55.015Z,0.00
2022-07-26T00:12:55.156Z,0.00
2022-07-26T00:13:55.297Z,0.00
2022-07-26T00:14:55.435Z,0.00
2022-07-26T00:15:55.580Z,0.00
2022-07-26T00:16:55.802Z,0.00
2022-07-26T00:17:55.788Z,0.00
2022-07-26T00:18:55.933Z,0.00
2022-07-26T00:19:56.033Z,0.00
2022-07-26T00:20:56.171Z,0.00
2022-07-26T00:21:56.265Z,0.00
2022-07-26T00:22:56.368Z,0.00
2022-07-26T00:23:56.496Z,0.00
2022-07-26T00:24:56.656Z,0.00
2022-07-26T00:25:56.718Z,0.00
2022-07-26T00:26:56.857Z,0.00
2022-07-26T00:27:56.997Z,0.00
2022-07-26T00:28:57.145Z,0.00
2022-07-26T00:29:57.285Z,0.00
2022-07-26T00:30:57.465Z,0.00
2022-07-26T00:31:57.615Z,0.00
2022-07-26T00:32:57.749Z,0.00
2022-07-26T00:33:57.818Z,0.00
2022-07-26T00:34:57.946Z,0.00
2022-07-26T00:35:58.108Z,0.00
2022-07-26T00:36:58.261Z,0.00
2022-07-26T00:37:58.378Z,0.00
2022-07-26T00:38:58.507Z,0.00
2022-07-26T00:39:58.635Z,0.00
2022-07-26T00:40:58.779Z,0.00
2022-07-26T00:41:58.861Z,0.00
2022-07-26T00:42:59.006Z,0.00
2022-07-26T00:43:59.136Z,0.00
2022-07-26T00:44:59.276Z,0.00
2022-07-26T00:45:59.454Z,0.00
2022-07-26T00:46:59.554Z,0.00
2022-07-26T00:47:59.629Z,0.00
2022-07-26T00:48:59.802Z,0.00
2022-07-26T00:50:00.620Z,0.00
2022-07-26T00:50:59.982Z,0.00
2022-07-26T00:52:00.120Z,0.00
2022-07-26T00:53:00.276Z,0.00
2022-07-26T00:54:00.435Z,0.00
2022-07-26T00:55:00.553Z,0.00
2022-07-26T00:56:00.657Z,0.00
2022-07-26T00:57:00.834Z,0.00
2022-07-26T00:58:00.956Z,0.00
2022-07-26T00:59:01.088Z,0.00
2022-07-26T01:00:01.228Z,0.00
2022-07-26T01:01:01.414Z,0.00
2022-07-26T01:02:01.687Z,0.00
2022-07-26T01:03:01.632Z,0.00
2022-07-26T01:04:01.725Z,0.00
2022-07-26T01:05:01.869Z,0.00
2022-07-26T01:06:02.001Z,0.00
2022-07-26T01:07:02.139Z,0.00
2022-07-26T01:08:02.296Z,0.00
2022-07-26T01:09:02.425Z,0.00
2022-07-26T01:10:02.546Z,0.00
2022-07-26T01:11:02.687Z,0.00
2022-07-26T01:12:02.819Z,0.00
2022-07-26T01:13:02.959Z,0.00
2022-07-26T01:14:03.119Z,0.00
2022-07-26T01:15:03.248Z,0.00
2022-07-26T01:16:03.539Z,0.00
2022-07-26T01:17:03.507Z,0.00
2022-07-26T01:18:03.650Z,0.00
2022-07-26T01:19:03.814Z,0.00
2022-07-26T01:20:04.706Z,0.00
2022-07-26T01:21:13.777Z,0.00
2022-07-26T01:22:05.207Z,0.00
2022-07-26T01:23:04.355Z,0.00
2022-07-26T01:24:11.664Z,0.00
2022-07-26T01:25:05.375Z,0.00
2022-07-26T01:26:04.763Z,0.00
2022-07-26T01:27:04.876Z,0.00
2022-07-26T01:28:05.015Z,0.00
2022-07-26T01:29:05.156Z,0.00
2022-07-26T01:30:05.323Z,0.00
2022-07-26T01:31:05.495Z,0.00
2022-07-26T01:32:05.591Z,0.00
2022-07-26T01:33:06.555Z,0.00
2022-07-26T01:34:06.322Z,0.00
2022-07-26T01:35:06.000Z,0.00
2022-07-26T01:36:06.116Z,0.00
2022-07-26T01:37:06.263Z,0.00
2022-07-26T01:38:06.357Z,0.00
2022-07-26T01:39:06.506Z,0.00
2022-07-26T01:40:07.239Z,0.00
2022-07-26T01:41:06.737Z,0.00
2022-07-26T01:42:06.865Z,0.00
2022-07-26T01:43:07.000Z,0.00
2022-07-26T01:44:07.742Z,0.00
2022-07-26T01:45:07.291Z,0.00
2022-07-26T01:46:07.533Z,0.00
2022-07-26T01:47:07.606Z,0.00
2022-07-26T01:48:07.703Z,0.00
2022-07-26T01:49:07.929Z,0.00
2022-07-26T01:50:07.984Z,0.00
2022-07-26T01:51:08.116Z,0.00
2022-07-26T01:52:08.242Z,0.00
2022-07-26T01:53:08.412Z,0.00
2022-07-26T01:54:08.882Z,0.00
2022-07-26T01:55:08.616Z,0.00
2022-07-26T01:56:08.743Z,0.00
2022-07-26T01:57:08.874Z,0.00
2022-07-26T01:58:09.004Z,0.00
2022-07-26T01:59:09.152Z,0.00
2022-07-26T02:00:09.253Z,0.00
2022-07-26T02:01:09.424Z,0.00
2022-07-26T02:02:09.546Z,0.00
2022-07-26T02:03:09.686Z,0.00
2022-07-26T02:04:10.127Z,0.00
2022-07-26T02:05:09.893Z,0.00
2022-07-26T02:06:10.031Z,0.00
2022-07-26T02:07:12.788Z,0.00
2022-07-26T02:08:10.834Z,0.00
2022-07-26T02:09:12.667Z,0.00
2022-07-26T02:10:10.533Z,0.00
2022-07-26T02:11:10.664Z,0.00
2022-07-26T02:12:10.798Z,0.00
2022-07-26T02:13:10.934Z,0.00
2022-07-26T02:14:11.433Z,0.00
2022-07-26T02:15:12.184Z,0.00
2022-07-26T02:16:11.380Z,0.00
2022-07-26T02:17:11.475Z,0.00
2022-07-26T02:18:11.605Z,0.00
2022-07-26T02:19:11.736Z,0.00
2022-07-26T02:20:11.894Z,0.00
2022-07-26T02:21:11.975Z,0.00
2022-07-26T02:22:12.102Z,0.00
2022-07-26T02:23:12.222Z,0.00
2022-07-26T02:24:12.355Z,0.00
2022-07-26T02:25:12.508Z,0.00
2022-07-26T02:26:12.669Z,0.00
2022-07-26T02:27:12.756Z,0.00
2022-07-26T02:28:12.884Z,0.00
2022-07-26T02:29:13.016Z,0.00
2022-07-26T02:30:13.142Z,0.00
2022-07-26T02:31:15.614Z,0.00
2022-07-26T02:32:13.420Z,0.00
2022-07-26T02:33:13.518Z,0.00
2022-07-26T02:34:14.383Z,0.00
2022-07-26T02:35:13.744Z,0.00
2022-07-26T02:36:13.893Z,0.00
2022-07-26T02:37:14.035Z,0.00
2022-07-26T02:38:14.172Z,0.00
2022-07-26T02:39:14.309Z,0.00
2022-07-26T02:40:18.998Z,0.00
2022-07-26T02:41:15.575Z,0.00
2022-07-26T02:42:14.665Z,0.00
2022-07-26T02:43:14.785Z,0.00
2022-07-26T02:44:14.923Z,0.00
2022-07-26T02:45:15.052Z,0.00
2022-07-26T02:46:15.207Z,0.00
2022-07-26T02:47:15.313Z,0.00
2022-07-26T02:48:15.413Z,0.00
2022-07-26T02:49:15.569Z,0.00
2022-07-26T02:50:15.666Z,0.00
2022-07-26T02:51:15.825Z,0.00
2022-07-26T02:52:15.995Z,0.00
2022-07-26T02:53:16.065Z,0.00
2022-07-26T02:54:16.211Z,0.00
2022-07-26T02:55:16.367Z,0.00
2022-07-26T02:56:16.506Z,0.00
2022-07-26T02:57:16.596Z,0.00
2022-07-26T02:58:16.734Z,0.00
2022-07-26T02:59:16.868Z,0.00
2022-07-26T03:00:16.994Z,0.00
2022-07-26T03:01:17.198Z,0.00
2022-07-26T03:02:17.331Z,0.00
2022-07-26T03:03:17.375Z,0.00
2022-07-26T03:04:17.514Z,0.00
2022-07-26T03:05:17.635Z,0.00
2022-07-26T03:06:17.785Z,0.00
2022-07-26T03:07:17.875Z,0.00
2022-07-26T03:08:18.003Z,0.00
2022-07-26T03:09:18.127Z,0.00
2022-07-26T03:10:18.262Z,0.00
2022-07-26T03:11:18.390Z,0.00
2022-07-26T03:12:18.523Z,4.00
2022-07-26T03:13:18.644Z,4.00
2022-07-26T03:14:18.815Z,0.00
2022-07-26T03:15:18.976Z,0.00
2022-07-26T03:16:21.784Z,4.00
2022-07-26T03:17:19.225Z,4.00
2022-07-26T03:18:19.362Z,0.00
2022-07-26T03:19:19.485Z,4.00
2022-07-26T03:20:19.637Z,4.00
2022-07-26T03:21:19.725Z,4.00
2022-07-26T03:22:19.864Z,4.00
2022-07-26T03:23:19.996Z,4.00
2022-07-26T03:24:20.137Z,4.00
2022-07-26T03:25:20.273Z,4.00
2022-07-26T03:26:20.443Z,8.00
2022-07-26T03:27:20.604Z,4.00
2022-07-26T03:28:20.766Z,8.00
2022-07-26T03:29:20.897Z,8.00
2022-07-26T03:30:24.662Z,8.00
2022-07-26T03:31:22.196Z,8.00
2022-07-26T03:32:21.274Z,12.00
2022-07-26T03:33:21.415Z,12.00
2022-07-26T03:34:21.534Z,16.00
2022-07-26T03:35:21.673Z,12.00
2022-07-26T03:36:21.817Z,16.00
2022-07-26T03:37:21.976Z,16.00
2022-07-26T03:38:22.104Z,16.00
2022-07-26T03:39:22.235Z,20.00
2022-07-26T03:40:22.375Z,20.00
2022-07-26T03:41:22.474Z,24.00
2022-07-26T03:42:22.607Z,32.00
2022-07-26T03:43:23.614Z,32.00
2022-07-26T03:44:22.963Z,40.00
2022-07-26T03:45:22.975Z,44.00
2022-07-26T03:46:23.168Z,48.00
2022-07-26T03:47:23.196Z,56.00
2022-07-26T03:48:23.337Z,56.00
2022-07-26T03:49:23.472Z,56.00
2022-07-26T03:50:23.576Z,68.00
2022-07-26T03:51:23.664Z,76.00
2022-07-26T03:52:23.805Z,92.00
2022-07-26T03:53:23.935Z,104.00
2022-07-26T03:54:24.086Z,112.00
2022-07-26T03:55:24.246Z,120.00
2022-07-26T03:56:24.383Z,132.00
2022-07-26T03:57:24.512Z,140.00
2022-07-26T03:58:24.665Z,152.00
2022-07-26T03:59:24.786Z,160.00
2022-07-26T04:00:24.935Z,172.00
2022-07-26T04:01:25.053Z,184.00
2022-07-26T04:02:25.284Z,192.00
2022-07-26T04:03:25.313Z,200.00
2022-07-26T04:04:26.532Z,200.00
2022-07-26T04:05:26.064Z,192.00
2022-07-26T04:06:25.746Z,188.00
2022-07-26T04:07:25.933Z,180.00
2022-07-26T04:08:25.985Z,180.00
2022-07-26T04:09:26.125Z,176.00
2022-07-26T04:10:26.267Z,172.00
2022-07-26T04:11:28.211Z,168.00
2022-07-26T04:12:26.488Z,164.00
2022-07-26T04:13:26.613Z,168.00
2022-07-26T04:14:26.754Z,164.00
2022-07-26T04:15:27.626Z,164.00
2022-07-26T04:16:27.121Z,172.00
2022-07-26T04:17:27.165Z,188.00
2022-07-26T04:18:27.318Z,200.00
2022-07-26T04:19:27.415Z,212.00
2022-07-26T04:20:27.554Z,232.00
2022-07-26T04:21:27.693Z,260.00
2022-07-26T04:22:27.843Z,276.00
2022-07-26T04:23:27.937Z,292.00
2022-07-26T04:24:28.074Z,312.00
2022-07-26T04:25:28.215Z,344.00
2022-07-26T04:26:29.347Z,376.00
2022-07-26T04:27:28.476Z,420.00
2022-07-26T04:28:28.603Z,456.00
2022-07-26T04:29:28.734Z,492.00
2022-07-26T04:30:28.942Z,520.00
2022-07-26T04:31:28.976Z,552.00
2022-07-26T04:32:30.108Z,568.00
2022-07-26T04:33:29.225Z,592.00
2022-07-26T04:34:29.364Z,608.00
2022-07-26T04:35:29.512Z,620.00
2022-07-26T04:36:29.622Z,632.00
2022-07-26T04:37:29.747Z,652.00
2022-07-26T04:38:29.896Z,680.00
2022-07-26T04:39:30.002Z,724.00
2022-07-26T04:40:30.135Z,764.00
2022-07-26T04:41:30.263Z,788.00
2022-07-26T04:42:30.430Z,808.00
2022-07-26T04:43:30.506Z,816.00
2022-07-26T04:44:30.666Z,824.00
2022-07-26T04:45:30.774Z,832.00
2022-07-26T04:46:30.955Z,836.00
2022-07-26T04:47:31.064Z,860.00
2022-07-26T04:48:31.135Z,892.00
2022-07-26T04:49:31.214Z,928.00
2022-07-26T04:50:31.346Z,964.00
2022-07-26T04:51:31.473Z,1000.00
2022-07-26T04:52:31.644Z,1044.00
2022-07-26T04:53:31.726Z,1100.00
2022-07-26T04:54:31.865Z,1152.00
2022-07-26T04:55:32.007Z,1192.00
2022-07-26T04:56:32.154Z,1208.00
2022-07-26T04:57:32.296Z,1224.00
2022-07-26T04:58:32.485Z,1228.00
2022-07-26T04:59:32.576Z,1184.00
2022-07-26T05:00:34.420Z,1168.00
2022-07-26T05:01:33.854Z,1184.00
2022-07-26T05:02:33.093Z,1228.00
2022-07-26T05:03:33.067Z,1296.00
2022-07-26T05:04:33.214Z,1408.00
2022-07-26T05:05:33.315Z,1532.00
2022-07-26T05:06:33.476Z,1656.00
2022-07-26T05:07:33.574Z,1740.00
2022-07-26T05:08:33.768Z,1792.00
2022-07-26T05:09:33.835Z,1852.00
2022-07-26T05:10:33.977Z,1896.00
2022-07-26T05:11:34.106Z,1908.00
2022-07-26T05:12:34.243Z,1888.00
2022-07-26T05:13:34.378Z,1872.00
2022-07-26T05:14:34.522Z,1892.00
2022-07-26T05:15:35.364Z,1952.00
2022-07-26T05:16:34.778Z,2032.00
2022-07-26T05:17:34.928Z,2136.00
2022-07-26T05:18:49.043Z,2244.00
2022-07-26T05:19:36.116Z,2324.00
2022-07-26T05:20:35.210Z,2384.00
2022-07-26T05:21:35.335Z,2432.00
2022-07-26T05:22:35.485Z,2448.00
2022-07-26T05:23:35.596Z,2452.00
2022-07-26T05:24:35.735Z,2340.00
2022-07-26T05:25:35.885Z,2260.00
2022-07-26T05:26:36.024Z,2300.00
2022-07-26T05:27:36.152Z,2336.00
2022-07-26T05:28:36.296Z,2440.00
2022-07-26T05:29:36.440Z,2484.00
2022-07-26T05:30:36.660Z,2564.00
2022-07-26T05:31:36.687Z,2708.00
2022-07-26T05:32:36.823Z,2904.00
2022-07-26T05:33:36.966Z,3044.00
2022-07-26T05:34:37.146Z,3144.00
2022-07-26T05:35:37.215Z,3260.00
2022-07-26T05:36:37.361Z,3356.00
2022-07-26T05:37:37.486Z,3412.00
2022-07-26T05:38:37.647Z,3456.00
2022-07-26T05:39:37.765Z,3500.00
2022-07-26T05:40:37.873Z,3560.00
2022-07-26T05:41:38.066Z,3632.00
2022-07-26T05:42:38.140Z,3684.00
2022-07-26T05:43:41.704Z,3708.00
2022-07-26T05:44:42.553Z,3728.00
2022-07-26T05:45:38.525Z,3780.00
2022-07-26T05:46:38.615Z,3816.00
2022-07-26T05:47:38.717Z,3864.00
2022-07-26T05:48:38.860Z,3892.00
2022-07-26T05:49:39.792Z,3876.00
2022-07-26T05:50:39.061Z,3844.00
2022-07-26T05:51:39.203Z,3824.00
2022-07-26T05:52:39.348Z,3808.00
2022-07-26T05:53:39.483Z,3792.00
2022-07-26T05:54:39.622Z,3736.00
2022-07-26T05:55:39.762Z,3616.00
2022-07-26T05:56:39.907Z,3500.00
2022-07-26T05:57:40.044Z,3384.00
2022-07-26T05:58:40.202Z,3264.00
2022-07-26T05:59:41.894Z,3144.00
2022-07-26T06:00:42.274Z,3056.00
2022-07-26T06:01:40.525Z,2984.00
2022-07-26T06:02:40.720Z,2812.00
2022-07-26T06:03:40.783Z,2872.00
2022-07-26T06:04:40.985Z,2760.00
2022-07-26T06:05:41.009Z,2684.00
2022-07-26T06:06:41.151Z,2740.00
2022-07-26T06:07:41.278Z,2720.00
2022-07-26T06:08:41.504Z,2900.00
2022-07-26T06:09:41.548Z,2884.00
2022-07-26T06:10:41.684Z,3104.00
2022-07-26T06:11:41.816Z,3228.00
2022-07-26T06:12:41.965Z,3264.00
2022-07-26T06:13:42.086Z,3776.00
2022-07-26T06:14:42.197Z,4528.00
2022-07-26T06:15:42.352Z,4856.00
2022-07-26T06:16:42.541Z,5392.00
2022-07-26T06:17:42.625Z,5888.00
2022-07-26T06:18:42.744Z,6052.00
2022-07-26T06:19:47.371Z,5780.00
2022-07-26T06:20:43.956Z,5576.00
2022-07-26T06:21:43.103Z,5564.00
2022-07-26T06:22:43.227Z,5472.00
2022-07-26T06:23:43.388Z,5644.00
2022-07-26T06:24:43.489Z,6204.00
2022-07-26T06:25:43.627Z,6092.00
2022-07-26T06:26:43.759Z,6140.00
2022-07-26T06:27:43.914Z,5912.00
2022-07-26T06:28:44.028Z,5548.00
2022-07-26T06:29:44.125Z,5368.00
2022-07-26T06:30:44.230Z,5404.00
2022-07-26T06:31:44.436Z,5416.00
2022-07-26T06:32:44.502Z,5400.00
2022-07-26T06:33:44.786Z,5348.00
2022-07-26T06:34:44.758Z,5232.00
2022-07-26T06:35:44.924Z,5404.00
2022-07-26T06:36:45.007Z,5400.00
2022-07-26T06:37:45.170Z,5288.00
2022-07-26T06:38:45.237Z,5492.00
2022-07-26T06:39:46.048Z,5436.00
2022-07-26T06:40:46.004Z,5596.00
2022-07-26T06:41:45.603Z,5464.00
2022-07-26T06:42:45.708Z,5136.00
2022-07-26T06:43:45.856Z,5968.00
2022-07-26T06:44:45.967Z,5616.00
2022-07-26T06:45:46.126Z,5544.00
2022-07-26T06:46:46.207Z,5540.00
2022-07-26T06:47:46.344Z,5612.00
2022-07-26T06:48:47.685Z,6360.00
2022-07-26T06:49:47.615Z,7408.00
2022-07-26T06:50:46.762Z,7672.00
2022-07-26T06:51:46.865Z,6160.00
2022-07-26T06:52:47.847Z,5300.00
2022-07-26T06:53:47.858Z,4928.00
2022-07-26T06:54:47.256Z,4996.00
2022-07-26T06:55:47.356Z,4784.00
2022-07-26T06:56:47.466Z,4840.00
2022-07-26T06:57:50.116Z,5100.00
2022-07-26T06:58:47.705Z,5232.00
2022-07-26T06:59:47.848Z,5404.00
2022-07-26T07:00:48.049Z,5956.00
2022-07-26T07:01:51.318Z,6224.00
2022-07-26T07:02:49.237Z,6064.00
2022-07-26T07:03:48.385Z,6016.00
2022-07-26T07:04:48.515Z,6080.00
2022-07-26T07:05:50.272Z,6328.00
2022-07-26T07:06:49.641Z,6316.00
2022-07-26T07:07:48.876Z,5836.00
2022-07-26T07:08:48.986Z,5324.00
2022-07-26T07:09:49.130Z,5036.00
2022-07-26T07:10:50.825Z,5692.00
2022-07-26T07:11:51.863Z,7120.00
2022-07-26T07:12:50.507Z,8268.00
2022-07-26T07:13:49.649Z,9296.00
2022-07-26T07:14:49.744Z,9580.00
2022-07-26T07:15:49.902Z,6752.00
2022-07-26T07:16:50.070Z,5624.00
2022-07-26T07:17:50.148Z,6104.00
2022-07-26T07:18:50.277Z,7092.00
2022-07-26T07:19:50.425Z,7912.00
2022-07-26T07:20:50.554Z,7412.00
2022-07-26T07:21:50.716Z,5900.00
2022-07-26T07:22:50.801Z,5548.00
2022-07-26T07:23:50.958Z,5844.00
2022-07-26T07:24:51.070Z,5304.00
2022-07-26T07:25:51.217Z,4352.00
2022-07-26T07:26:51.438Z,4212.00
2022-07-26T07:27:51.488Z,4888.00
2022-07-26T07:28:51.602Z,5296.00
2022-07-26T07:29:51.737Z,5656.00
2022-07-26T07:30:52.580Z,6164.00
2022-07-26T07:31:52.005Z,5300.00
2022-07-26T07:32:52.083Z,5380.00
2022-07-26T07:33:53.457Z,6184.00
2022-07-26T07:34:52.377Z,8008.00
2022-07-26T07:35:52.465Z,8320.00
2022-07-26T07:36:52.608Z,7648.00
2022-07-26T07:37:54.154Z,7240.00
2022-07-26T07:38:52.841Z,6820.00
2022-07-26T07:39:52.997Z,6756.00
2022-07-26T07:40:53.098Z,6460.00
2022-07-26T07:41:55.176Z,5948.00
2022-07-26T07:42:53.337Z,6576.00
2022-07-26T07:43:53.439Z,6860.00
2022-07-26T07:44:53.528Z,7284.00
2022-07-26T07:45:53.677Z,7376.00
2022-07-26T07:46:53.834Z,5944.00
2022-07-26T07:47:53.950Z,5232.00
2022-07-26T07:48:54.073Z,6944.00
2022-07-26T07:49:54.165Z,7668.00
2022-07-26T07:50:54.299Z,8184.00
2022-07-26T07:51:54.451Z,8648.00
2022-07-26T07:52:54.549Z,8816.00
2022-07-26T07:53:56.945Z,6072.00
2022-07-26T07:55:06.568Z,8408.00
2022-07-26T07:55:55.920Z,5800.00
2022-07-26T07:56:55.050Z,9212.00
2022-07-26T07:57:55.199Z,8860.00
2022-07-26T07:58:55.309Z,8880.00
2022-07-26T07:59:55.466Z,8960.00
2022-07-26T08:00:55.658Z,7592.00
2022-07-26T08:01:55.731Z,7036.00
2022-07-26T08:02:55.869Z,7696.00
2022-07-26T08:03:58.038Z,6400.00
2022-07-26T08:04:56.132Z,7760.00
2022-07-26T08:05:57.007Z,7208.00
2022-07-26T08:06:56.390Z,6448.00
2022-07-26T08:07:56.518Z,6424.00
2022-07-26T08:08:56.640Z,7636.00
2022-07-26T08:09:56.747Z,8600.00
2022-07-26T08:10:56.878Z,9872.00
2022-07-26T08:11:57.032Z,10904.00
2022-07-26T08:12:57.139Z,11044.00
2022-07-26T08:13:57.999Z,10140.00
2022-07-26T08:14:57.419Z,11428.00
2022-07-26T08:15:57.536Z,9508.00
2022-07-26T08:16:57.777Z,9396.00
2022-07-26T08:17:58.513Z,7704.00
2022-07-26T08:19:08.738Z,6368.00
2022-07-26T08:20:00.661Z,6036.00
2022-07-26T08:20:58.141Z,5928.00
2022-07-26T08:21:58.273Z,5700.00
2022-07-26T08:22:58.368Z,5600.00
2022-07-26T08:23:58.544Z,5632.00
2022-07-26T08:24:58.624Z,5416.00
2022-07-26T08:26:03.295Z,5360.00
2022-07-26T08:26:59.878Z,5112.00
2022-07-26T08:28:09.232Z,4796.00
2022-07-26T08:29:00.620Z,4712.00
2022-07-26T08:29:59.263Z,4332.00
2022-07-26T08:30:59.458Z,3896.00
2022-07-26T08:31:59.532Z,3576.00
2022-07-26T08:32:59.631Z,3656.00
2022-07-26T08:34:00.523Z,3980.00
2022-07-26T08:35:17.876Z,4712.00
2022-07-26T08:36:01.042Z,6040.00
2022-07-26T08:37:16.518Z,7432.00
2022-07-26T08:38:01.262Z,8376.00
2022-07-26T08:39:00.441Z,8948.00
2022-07-26T08:40:00.530Z,9160.00
2022-07-26T08:41:02.577Z,9152.00
2022-07-26T08:42:00.753Z,8932.00
2022-07-26T08:43:00.879Z,8480.00
2022-07-26T08:44:01.692Z,7968.00
2022-07-26T08:45:01.154Z,6896.00
2022-07-26T08:46:01.279Z,5908.00
2022-07-26T08:47:01.455Z,5476.00
2022-07-26T08:48:18.408Z,4984.00
2022-07-26T08:49:02.628Z,4540.00
2022-07-26T08:50:01.701Z,4232.00
2022-07-26T08:51:01.804Z,3372.00
2022-07-26T08:52:02.671Z,2420.00
2022-07-26T08:53:02.080Z,1984.00
2022-07-26T08:54:05.799Z,1860.00
2022-07-26T08:55:02.347Z,1816.00
2022-07-26T08:56:07.313Z,1708.00
2022-07-26T08:57:05.092Z,1528.00
2022-07-26T08:58:02.714Z,1428.00
2022-07-26T08:59:02.792Z,1428.00
2022-07-26T09:00:02.901Z,1520.00
2022-07-26T09:01:03.139Z,1532.00
2022-07-26T09:02:03.220Z,1428.00
2022-07-26T09:03:03.321Z,1300.00
2022-07-26T09:04:03.528Z,1248.00
2022-07-26T09:05:04.000Z,1372.00
2022-07-26T09:06:03.700Z,1640.00
2022-07-26T09:07:03.861Z,1908.00
2022-07-26T09:08:03.975Z,2044.00
2022-07-26T09:09:04.101Z,2024.00
2022-07-26T09:10:04.180Z,1748.00
2022-07-26T09:11:04.282Z,1472.00
2022-07-26T09:12:04.436Z,1368.00
2022-07-26T09:13:04.581Z,1472.00
2022-07-26T09:14:04.702Z,1792.00
2022-07-26T09:15:04.796Z,2248.00
2022-07-26T09:16:04.950Z,2552.00
2022-07-26T09:17:05.030Z,2432.00
2022-07-26T09:18:05.141Z,2348.00
2022-07-26T09:19:05.439Z,2376.00
2022-07-26T09:20:05.364Z,2472.00
2022-07-26T09:21:05.504Z,2656.00
2022-07-26T09:22:10.103Z,2836.00
2022-07-26T09:23:05.777Z,3136.00
2022-07-26T09:24:05.933Z,3512.00
2022-07-26T09:25:06.043Z,3912.00
2022-07-26T09:26:06.203Z,4208.00
2022-07-26T09:27:06.319Z,4480.00
2022-07-26T09:28:06.425Z,4668.00
2022-07-26T09:29:06.922Z,4852.00
2022-07-26T09:30:06.657Z,5024.00
2022-07-26T09:31:06.818Z,5224.00
2022-07-26T09:32:06.933Z,5452.00
2022-07-26T09:33:07.035Z,5648.00
2022-07-26T09:34:07.728Z,5824.00
2022-07-26T09:35:24.152Z,5996.00
2022-07-26T09:36:08.373Z,6160.00
2022-07-26T09:37:12.262Z,6328.00
2022-07-26T09:38:08.654Z,6476.00
2022-07-26T09:39:08.087Z,6660.00
2022-07-26T09:40:07.898Z,6916.00
2022-07-26T09:41:07.995Z,7196.00
2022-07-26T09:42:26.681Z,7432.00
2022-07-26T09:43:09.923Z,7664.00
2022-07-26T09:44:08.810Z,8020.00
2022-07-26T09:45:08.484Z,8356.00
2022-07-26T09:46:08.727Z,8680.00
2022-07-26T09:47:08.752Z,9056.00
2022-07-26T09:48:08.913Z,9452.00
2022-07-26T09:49:11.096Z,9876.00
2022-07-26T09:50:11.355Z,10316.00
2022-07-26T09:51:09.242Z,10696.00
2022-07-26T09:52:09.392Z,10928.00
2022-07-26T09:53:09.607Z,11132.00
2022-07-26T09:54:10.068Z,11292.00
2022-07-26T09:55:09.892Z,11392.00
2022-07-26T09:56:09.885Z,11396.00
2022-07-26T09:57:10.017Z,11284.00
2022-07-26T09:58:10.123Z,11112.00
2022-07-26T09:59:10.234Z,10944.00
2022-07-26T10:00:10.392Z,10712.00
2022-07-26T10:01:10.482Z,10688.00
2022-07-26T10:02:10.716Z,10972.00
2022-07-26T10:03:10.811Z,11372.00
2022-07-26T10:04:11.380Z,11700.00
2022-07-26T10:05:10.974Z,11728.00
2022-07-26T10:06:11.130Z,11172.00
2022-07-26T10:07:11.248Z,10056.00
2022-07-26T10:08:11.395Z,8724.00
2022-07-26T10:09:12.454Z,7936.00
2022-07-26T10:10:11.633Z,6920.00
2022-07-26T10:11:11.752Z,6096.00
2022-07-26T10:12:11.876Z,5736.00
2022-07-26T10:13:11.961Z,5960.00
2022-07-26T10:14:12.604Z,6028.00
2022-07-26T10:15:12.225Z,5596.00
2022-07-26T10:16:14.418Z,4716.00
2022-07-26T10:17:13.491Z,3900.00
2022-07-26T10:18:16.714Z,3432.00
2022-07-26T10:19:13.733Z,3588.00
2022-07-26T10:20:19.386Z,4564.00
2022-07-26T10:21:13.956Z,6172.00
2022-07-26T10:22:13.103Z,8480.00
2022-07-26T10:23:13.205Z,10100.00
2022-07-26T10:24:13.795Z,10816.00
2022-07-26T10:25:13.483Z,11468.00
2022-07-26T10:26:13.605Z,11820.00
2022-07-26T10:27:13.734Z,11856.00
2022-07-26T10:28:13.837Z,11728.00
2022-07-26T10:29:13.943Z,11276.00
2022-07-26T10:30:14.086Z,10768.00
2022-07-26T10:31:14.292Z,10320.00
2022-07-26T10:32:14.373Z,10912.00
2022-07-26T10:33:14.456Z,13508.00
2022-07-26T10:34:14.740Z,16096.00
2022-07-26T10:35:14.714Z,16448.00
2022-07-26T10:36:14.845Z,14992.00
2022-07-26T10:37:14.974Z,11936.00
2022-07-26T10:38:15.055Z,7676.00
2022-07-26T10:39:15.174Z,4632.00
2022-07-26T10:40:15.281Z,3868.00
2022-07-26T10:41:15.436Z,4056.00
2022-07-26T10:42:15.566Z,4372.00
2022-07-26T10:43:40.527Z,4516.00
2022-07-26T10:44:16.773Z,4640.00
2022-07-26T10:45:15.928Z,4844.00
2022-07-26T10:46:16.282Z,4724.00
2022-07-26T10:47:16.153Z,4428.00
2022-07-26T10:48:16.245Z,4320.00
2022-07-26T10:49:16.399Z,4408.00
2022-07-26T10:50:16.490Z,4564.00
2022-07-26T10:51:16.596Z,4436.00
2022-07-26T10:52:16.728Z,4120.00
2022-07-26T10:53:16.863Z,3952.00
2022-07-26T10:54:17.037Z,3800.00
2022-07-26T10:55:17.065Z,3624.00
2022-07-26T10:56:17.198Z,3732.00
2022-07-26T10:57:17.326Z,4312.00
2022-07-26T10:58:18.149Z,5188.00
2022-07-26T10:59:32.931Z,6228.00
2022-07-26T11:00:18.675Z,7208.00
2022-07-26T11:01:17.866Z,7988.00
2022-07-26T11:02:17.974Z,8416.00
2022-07-26T11:03:18.107Z,8384.00
2022-07-26T11:04:18.138Z,8192.00
2022-07-26T11:05:18.302Z,8376.00
2022-07-26T11:06:18.396Z,8876.00
2022-07-26T11:07:18.524Z,9668.00
2022-07-26T11:08:18.603Z,10640.00
2022-07-26T11:09:18.764Z,10996.00
2022-07-26T11:10:18.922Z,10776.00
2022-07-26T11:11:19.018Z,10268.00
2022-07-26T11:12:19.145Z,10236.00
2022-07-26T11:13:19.253Z,10192.00
2022-07-26T11:14:19.356Z,10056.00
2022-07-26T11:15:19.506Z,9884.00
2022-07-26T11:16:19.719Z,9208.00
2022-07-26T11:17:19.766Z,8848.00
2022-07-26T11:18:19.853Z,8736.00
2022-07-26T11:19:21.444Z,8108.00
2022-07-26T11:20:20.079Z,7832.00
2022-07-26T11:21:20.196Z,8976.00
2022-07-26T11:22:20.318Z,10136.00
2022-07-26T11:23:20.426Z,10016.00
2022-07-26T11:24:20.572Z,9320.00
2022-07-26T11:25:20.654Z,9164.00
2022-07-26T11:26:20.766Z,8844.00
2022-07-26T11:27:20.955Z,8812.00
2022-07-26T11:28:21.001Z,10376.00
2022-07-26T11:29:22.661Z,10616.00
2022-07-26T11:30:21.277Z,9984.00
2022-07-26T11:31:21.458Z,9496.00
2022-07-26T11:32:22.049Z,8848.00
2022-07-26T11:33:21.638Z,8544.00
2022-07-26T11:34:21.766Z,7988.00
2022-07-26T11:35:21.888Z,7744.00
2022-07-26T11:36:21.976Z,7784.00
2022-07-26T11:37:22.173Z,7996.00
2022-07-26T11:38:22.247Z,8464.00
2022-07-26T11:39:22.376Z,8848.00
2022-07-26T11:40:22.528Z,8984.00
2022-07-26T11:41:34.333Z,8964.00
2022-07-26T11:42:23.869Z,9056.00
2022-07-26T11:43:22.907Z,9356.00
2022-07-26T11:44:23.007Z,9796.00
2022-07-26T11:45:23.156Z,10260.00
2022-07-26T11:46:23.325Z,10600.00
2022-07-26T11:47:25.556Z,10956.00
2022-07-26T11:48:23.521Z,11372.00
2022-07-26T11:49:41.521Z,11872.00
2022-07-26T11:50:24.758Z,12392.00
2022-07-26T11:51:23.896Z,12916.00
2022-07-26T11:52:25.458Z,13280.00
2022-07-26T11:53:24.158Z,13444.00
2022-07-26T11:54:24.305Z,13396.00
2022-07-26T11:55:24.467Z,13100.00
2022-07-26T11:56:24.717Z,12796.00
2022-07-26T11:57:24.990Z,12756.00
2022-07-26T11:58:24.811Z,12904.00
2022-07-26T11:59:24.944Z,13156.00
2022-07-26T12:00:25.096Z,13280.00
2022-07-26T12:01:25.210Z,13360.00
2022-07-26T12:02:25.339Z,13368.00
2022-07-26T12:03:25.490Z,13792.00
2022-07-26T12:04:25.720Z,14564.00
2022-07-26T12:05:25.923Z,15180.00
2022-07-26T12:06:25.880Z,16000.00
2022-07-26T12:07:25.977Z,16448.00
2022-07-26T12:08:26.125Z,16608.00
2022-07-26T12:09:26.278Z,16544.00
2022-07-26T12:10:26.397Z,16576.00
2022-07-26T12:11:26.505Z,16672.00
2022-07-26T12:12:26.827Z,16640.00
2022-07-26T12:13:26.745Z,16352.00
2022-07-26T12:14:26.878Z,15872.00
2022-07-26T12:15:27.127Z,15112.00
2022-07-26T12:16:27.198Z,14472.00
2022-07-26T12:17:27.281Z,13960.00
2022-07-26T12:18:28.381Z,13568.00
2022-07-26T12:19:27.528Z,13236.00
2022-07-26T12:20:27.648Z,12956.00
2022-07-26T12:21:27.759Z,12656.00
2022-07-26T12:22:27.858Z,12412.00
2022-07-26T12:23:28.008Z,12268.00
2022-07-26T12:24:28.121Z,12264.00
2022-07-26T12:25:28.289Z,12392.00
2022-07-26T12:26:28.376Z,12668.00
2022-07-26T12:27:28.529Z,13148.00